Terminal Aerodrome Forecast
Issued by NWS

Home | Current Version | Previous Version | Text Only | Print | Product List | Glossary On
Versions: 1 2 3 4 5 6 7 8 9 10 11 12 13 14 15 16 17 18 19
000
FTUS45 KBOU 270208 AAA
TAFBJC
TAF AMD
KBJC 270208Z 2702/2724 21006KT P6SM SCT050 BKN090
     FM271100 30006KT P6SM VCSH SCT040 BKN060
     FM271600 03010KT P6SM VCSH SCT010 BKN020
     FM271800 02010KT P6SM SCT020 BKN040=

USA.gov is the U.S. government's official web portal to all federal, state and local government web resources and services.